createdAt,value
2022-10-28T00:00:48.801Z,16.21
2022-10-28T00:01:48.946Z,16.16
2022-10-28T00:02:48.971Z,16.10
2022-10-28T00:03:48.912Z,16.12
2022-10-28T00:04:48.983Z,16.16
2022-10-28T00:05:48.943Z,16.18
2022-10-28T00:06:48.992Z,16.21
2022-10-28T00:07:49.035Z,16.17
2022-10-28T00:08:49.023Z,16.22
2022-10-28T00:09:49.079Z,16.18
2022-10-28T00:10:49.136Z,16.16
2022-10-28T00:11:49.177Z,16.12
2022-10-28T00:12:49.225Z,16.12
2022-10-28T00:13:49.274Z,16.12
2022-10-28T00:14:49.317Z,16.12
2022-10-28T00:15:49.385Z,16.18
2022-10-28T00:16:49.366Z,16.13
2022-10-28T00:17:49.417Z,16.16
2022-10-28T00:18:49.469Z,16.16
2022-10-28T00:19:49.508Z,16.12
2022-10-28T00:20:49.568Z,16.08
2022-10-28T00:21:49.628Z,16.06
2022-10-28T00:22:49.678Z,16.02
2022-10-28T00:23:49.730Z,16.00
2022-10-28T00:24:49.760Z,15.99
2022-10-28T00:25:49.801Z,15.99
2022-10-28T00:26:49.865Z,15.98
2022-10-28T00:27:50.013Z,15.98
2022-10-28T00:28:49.922Z,15.99
2022-10-28T00:29:49.984Z,15.99
2022-10-28T00:30:50.031Z,15.99
2022-10-28T00:31:50.081Z,16.02
2022-10-28T00:32:50.312Z,16.02
2022-10-28T00:33:50.181Z,16.05
2022-10-28T00:34:50.223Z,16.09
2022-10-28T00:35:50.273Z,16.10
2022-10-28T00:36:50.326Z,16.13
2022-10-28T00:37:50.377Z,16.17
2022-10-28T00:38:50.456Z,16.22
2022-10-28T00:39:50.414Z,16.25
2022-10-28T00:40:50.415Z,16.34
2022-10-28T00:41:50.466Z,16.36
2022-10-28T00:42:50.913Z,16.39
2022-10-28T00:43:50.544Z,16.37
2022-10-28T00:44:50.626Z,16.37
2022-10-28T00:45:50.577Z,16.34
2022-10-28T00:46:50.617Z,16.28
2022-10-28T00:47:50.853Z,16.25
2022-10-28T00:48:50.697Z,16.22
2022-10-28T00:49:50.748Z,16.13
2022-10-28T00:50:50.799Z,16.10
2022-10-28T00:51:50.845Z,16.08
2022-10-28T00:52:50.888Z,16.03
2022-10-28T00:53:50.939Z,16.00
2022-10-28T00:54:51.008Z,15.96
2022-10-28T00:55:51.061Z,15.94
2022-10-28T00:56:51.108Z,15.94
2022-10-28T00:57:51.364Z,15.98
2022-10-28T00:58:51.222Z,15.98
2022-10-28T00:59:51.270Z,15.96
2022-10-28T01:00:51.311Z,15.96
2022-10-28T01:01:51.438Z,15.94
2022-10-28T01:02:51.411Z,15.92
2022-10-28T01:03:51.457Z,15.92
2022-10-28T01:04:51.503Z,15.91
2022-10-28T01:05:51.551Z,15.92
2022-10-28T01:06:51.614Z,15.92
2022-10-28T01:07:51.964Z,15.92
2022-10-28T01:08:54.857Z,15.96
2022-10-28T01:09:51.703Z,15.98
2022-10-28T01:10:51.746Z,16.03
2022-10-28T01:11:51.796Z,16.06
2022-10-28T01:12:52.208Z,16.08
2022-10-28T01:13:51.928Z,16.08
2022-10-28T01:14:51.973Z,16.08
2022-10-28T01:15:52.024Z,16.08
2022-10-28T01:16:52.056Z,16.06
2022-10-28T01:17:52.117Z,16.03
2022-10-28T01:18:52.177Z,16.00
2022-10-28T01:19:52.838Z,16.03
2022-10-28T01:20:52.227Z,16.02
2022-10-28T01:21:52.269Z,15.99
2022-10-28T01:22:52.707Z,15.98
2022-10-28T01:23:52.349Z,15.99
2022-10-28T01:24:52.418Z,15.96
2022-10-28T01:25:52.470Z,15.96
2022-10-28T01:26:52.519Z,16.00
2022-10-28T01:27:52.559Z,16.02
2022-10-28T01:28:52.590Z,16.00
2022-10-28T01:29:52.660Z,16.02
2022-10-28T01:30:52.737Z,16.03
2022-10-28T01:31:52.692Z,16.00
2022-10-28T01:32:53.035Z,16.02
2022-10-28T01:33:52.750Z,15.99
2022-10-28T01:34:52.791Z,16.00
2022-10-28T01:35:52.856Z,16.03
2022-10-28T01:36:52.895Z,16.03
2022-10-28T01:37:53.142Z,16.09
2022-10-28T01:38:52.983Z,16.13
2022-10-28T01:39:53.040Z,16.21
2022-10-28T01:40:53.095Z,16.21
2022-10-28T01:41:53.161Z,16.22
2022-10-28T01:42:53.238Z,16.21
2022-10-28T01:43:53.215Z,16.17
2022-10-28T01:44:53.277Z,16.13
2022-10-28T01:45:53.335Z,16.10
2022-10-28T01:46:53.376Z,16.12
2022-10-28T01:47:53.699Z,16.21
2022-10-28T01:48:53.397Z,16.25
2022-10-28T01:49:53.444Z,16.25
2022-10-28T01:50:53.497Z,16.21
2022-10-28T01:51:53.538Z,16.25
2022-10-28T01:52:54.044Z,16.25
2022-10-28T01:53:53.618Z,16.26
2022-10-28T01:54:53.659Z,16.28
2022-10-28T01:55:53.700Z,16.26
2022-10-28T01:56:53.741Z,16.24
2022-10-28T01:57:53.743Z,16.22
2022-10-28T01:58:53.791Z,16.25
2022-10-28T01:59:53.842Z,16.25
2022-10-28T02:00:53.969Z,16.26
2022-10-28T02:01:53.998Z,16.26
2022-10-28T02:02:54.310Z,16.28
2022-10-28T02:03:53.916Z,16.26
2022-10-28T02:04:53.963Z,16.28
2022-10-28T02:05:54.002Z,16.29
2022-10-28T02:06:54.034Z,16.28
2022-10-28T02:07:54.065Z,16.26
2022-10-28T02:08:54.064Z,16.31
2022-10-28T02:09:54.119Z,16.40
2022-10-28T02:10:54.156Z,16.41
2022-10-28T02:11:54.204Z,16.41
2022-10-28T02:12:54.657Z,16.43
2022-10-28T02:13:54.276Z,16.44
2022-10-28T02:14:54.408Z,16.47
2022-10-28T02:15:54.335Z,16.50
2022-10-28T02:16:54.400Z,16.49
2022-10-28T02:17:54.837Z,16.47
2022-10-28T02:18:54.508Z,16.49
2022-10-28T02:19:54.518Z,16.50
2022-10-28T02:20:54.498Z,16.51
2022-10-28T02:21:54.548Z,16.54
2022-10-28T02:22:54.565Z,16.55
2022-10-28T02:23:54.620Z,16.57
2022-10-28T02:24:54.679Z,16.54
2022-10-28T02:25:54.730Z,16.57
2022-10-28T02:26:54.749Z,16.55
2022-10-28T02:27:55.133Z,16.57
2022-10-28T02:28:54.846Z,16.57
2022-10-28T02:29:54.814Z,16.57
2022-10-28T02:30:54.871Z,16.59
2022-10-28T02:31:54.868Z,16.61
2022-10-28T02:32:55.472Z,16.61
2022-10-28T02:33:54.932Z,16.66
2022-10-28T02:34:54.944Z,16.73
2022-10-28T02:35:54.942Z,16.76
2022-10-28T02:36:54.983Z,16.82
2022-10-28T02:37:55.023Z,16.80
2022-10-28T02:38:55.116Z,16.79
2022-10-28T02:39:55.069Z,16.76
2022-10-28T02:40:55.064Z,16.77
2022-10-28T02:41:55.107Z,16.76
2022-10-28T02:42:55.617Z,16.74
2022-10-28T02:43:55.144Z,16.73
2022-10-28T02:44:55.195Z,16.69
2022-10-28T02:45:55.236Z,16.72
2022-10-28T02:46:55.303Z,16.74
2022-10-28T02:47:55.277Z,16.76
2022-10-28T02:48:55.278Z,16.79
2022-10-28T02:49:55.280Z,16.80
2022-10-28T02:50:55.329Z,16.77
2022-10-28T02:51:55.308Z,16.79
2022-10-28T02:52:55.539Z,16.77
2022-10-28T02:53:55.420Z,16.76
2022-10-28T02:54:55.389Z,16.77
2022-10-28T02:55:55.469Z,16.77
2022-10-28T02:56:55.481Z,16.80
2022-10-28T02:57:55.740Z,16.82
2022-10-28T02:58:55.543Z,16.83
2022-10-28T02:59:55.590Z,16.83
2022-10-28T03:00:55.664Z,16.80
2022-10-28T03:01:55.782Z,16.80
2022-10-28T03:02:55.681Z,16.77
2022-10-28T03:03:55.684Z,16.76
2022-10-28T03:04:55.724Z,16.77
2022-10-28T03:05:55.795Z,16.76
2022-10-28T03:06:55.861Z,16.79
2022-10-28T03:07:56.104Z,16.79
2022-10-28T03:08:55.944Z,16.77
2022-10-28T03:09:55.945Z,16.73
2022-10-28T03:10:55.976Z,16.72
2022-10-28T03:11:55.985Z,16.73
2022-10-28T03:12:56.037Z,16.73
2022-10-28T03:13:56.065Z,16.72
2022-10-28T03:14:56.135Z,16.72
2022-10-28T03:15:56.167Z,16.69
2022-10-28T03:16:56.236Z,16.72
2022-10-28T03:17:56.522Z,16.72
2022-10-28T03:18:56.340Z,16.68
2022-10-28T03:19:56.327Z,16.66
2022-10-28T03:20:58.886Z,16.66
2022-10-28T03:21:56.367Z,16.62
2022-10-28T03:22:56.883Z,16.57
2022-10-28T03:23:56.449Z,16.50
2022-10-28T03:24:56.467Z,16.50
2022-10-28T03:25:56.527Z,16.47
2022-10-28T03:26:56.590Z,16.47
2022-10-28T03:27:56.580Z,16.49
2022-10-28T03:28:56.594Z,16.54
2022-10-28T03:29:56.616Z,16.55
2022-10-28T03:30:56.633Z,16.59
2022-10-28T03:31:56.602Z,16.62
2022-10-28T03:32:56.933Z,16.65
2022-10-28T03:33:56.682Z,16.65
2022-10-28T03:34:56.763Z,16.68
2022-10-28T03:35:56.763Z,16.69
2022-10-28T03:36:56.772Z,16.72
2022-10-28T03:37:56.813Z,16.66
2022-10-28T03:38:56.822Z,16.66
2022-10-28T03:39:56.845Z,16.66
2022-10-28T03:40:56.899Z,16.65
2022-10-28T03:41:56.905Z,16.62
2022-10-28T03:42:57.047Z,16.64
2022-10-28T03:43:56.985Z,16.62
2022-10-28T03:44:57.067Z,16.61
2022-10-28T03:45:57.116Z,16.61
2022-10-28T03:46:57.158Z,16.59
2022-10-28T03:47:57.205Z,16.55
2022-10-28T03:48:57.256Z,16.51
2022-10-28T03:49:57.300Z,16.51
2022-10-28T03:50:57.337Z,16.50
2022-10-28T03:51:57.420Z,16.49
2022-10-28T03:52:57.469Z,16.51
2022-10-28T03:53:57.522Z,16.51
2022-10-28T03:54:57.549Z,16.50
2022-10-28T03:55:57.544Z,16.55
2022-10-28T03:56:57.610Z,16.61
2022-10-28T03:57:57.621Z,16.65
2022-10-28T03:58:57.643Z,16.69
2022-10-28T03:59:57.681Z,16.72
2022-10-28T04:00:57.760Z,16.74
2022-10-28T04:01:57.848Z,16.74
2022-10-28T04:02:57.782Z,16.72
2022-10-28T04:03:57.832Z,16.73
2022-10-28T04:04:57.804Z,16.74
2022-10-28T04:05:57.803Z,16.80
2022-10-28T04:06:57.843Z,16.83
2022-10-28T04:07:57.885Z,16.84
2022-10-28T04:08:57.944Z,16.84
2022-10-28T04:09:57.995Z,16.84
2022-10-28T04:10:57.975Z,16.83
2022-10-28T04:11:58.002Z,16.87
2022-10-28T04:12:57.995Z,16.91
2022-10-28T04:13:58.037Z,16.92
2022-10-28T04:14:58.097Z,16.92
2022-10-28T04:15:58.116Z,16.95
2022-10-28T04:16:58.201Z,16.92
2022-10-28T04:17:58.248Z,16.95
2022-10-28T04:18:58.299Z,16.89
2022-10-28T04:19:58.373Z,16.94
2022-10-28T04:20:58.418Z,16.98
2022-10-28T04:21:58.460Z,16.98
2022-10-28T04:22:58.891Z,16.97
2022-10-28T04:23:58.499Z,16.95
2022-10-28T04:24:58.560Z,16.92
2022-10-28T04:25:58.621Z,16.86
2022-10-28T04:26:58.674Z,16.84
2022-10-28T04:27:58.713Z,16.82
2022-10-28T04:28:58.768Z,16.77
2022-10-28T04:29:58.815Z,16.76
2022-10-28T04:30:58.851Z,16.73
2022-10-28T04:31:58.912Z,16.68
2022-10-28T04:32:58.954Z,16.64
2022-10-28T04:33:59.004Z,16.59
2022-10-28T04:34:59.041Z,16.57
2022-10-28T04:35:59.105Z,16.50
2022-10-28T04:36:59.154Z,16.54
2022-10-28T04:37:59.174Z,16.50
2022-10-28T04:38:59.214Z,16.47
2022-10-28T04:39:59.266Z,16.43
2022-10-28T04:40:59.295Z,16.41
2022-10-28T04:41:59.347Z,16.49
2022-10-28T04:42:59.394Z,16.51
2022-10-28T04:43:59.446Z,16.51
2022-10-28T04:44:59.475Z,16.62
2022-10-28T04:45:59.447Z,16.69
2022-10-28T04:46:59.498Z,16.74
2022-10-28T04:47:59.537Z,16.74
2022-10-28T04:48:59.597Z,16.72
2022-10-28T04:49:59.639Z,16.68
2022-10-28T04:50:59.698Z,16.66
2022-10-28T04:51:59.749Z,16.62
2022-10-28T04:52:59.779Z,16.57
2022-10-28T04:53:59.809Z,16.58
2022-10-28T04:54:59.842Z,16.57
2022-10-28T04:55:59.897Z,16.58
2022-10-28T04:56:59.940Z,16.58
2022-10-28T04:57:59.990Z,16.58
2022-10-28T04:58:59.981Z,16.69
2022-10-28T05:00:00.014Z,16.72
2022-10-28T05:01:00.038Z,16.74
2022-10-28T05:02:00.135Z,16.76
2022-10-28T05:03:00.084Z,16.74
2022-10-28T05:04:00.143Z,16.68
2022-10-28T05:05:00.191Z,16.73
2022-10-28T05:06:00.213Z,16.69
2022-10-28T05:07:00.285Z,16.66
2022-10-28T05:08:00.283Z,16.69
2022-10-28T05:09:00.344Z,16.65
2022-10-28T05:10:00.329Z,16.66
2022-10-28T05:11:00.394Z,16.69
2022-10-28T05:12:00.435Z,16.73
2022-10-28T05:13:00.436Z,16.72
2022-10-28T05:14:00.490Z,16.73
2022-10-28T05:15:00.528Z,16.73
2022-10-28T05:16:00.527Z,16.72
2022-10-28T05:17:00.584Z,16.72
2022-10-28T05:18:00.648Z,16.69
2022-10-28T05:19:00.708Z,16.68
2022-10-28T05:20:00.759Z,16.66
2022-10-28T05:21:00.788Z,16.66
2022-10-28T05:22:00.829Z,16.68
2022-10-28T05:23:00.881Z,16.66
2022-10-28T05:24:00.901Z,16.64
2022-10-28T05:25:00.969Z,16.61
2022-10-28T05:26:00.950Z,16.57
2022-10-28T05:27:01.184Z,16.51
2022-10-28T05:28:01.093Z,16.51
2022-10-28T05:29:01.121Z,16.59
2022-10-28T05:30:01.170Z,16.58
2022-10-28T05:31:01.212Z,16.54
2022-10-28T05:32:01.341Z,16.49
2022-10-28T05:33:01.571Z,16.43
2022-10-28T05:34:01.317Z,16.40
2022-10-28T05:35:01.353Z,16.39
2022-10-28T05:36:01.403Z,16.32
2022-10-28T05:37:01.451Z,16.26
2022-10-28T05:38:01.473Z,16.22
2022-10-28T05:39:01.479Z,16.29
2022-10-28T05:40:01.556Z,16.32
2022-10-28T05:41:01.536Z,16.36
2022-10-28T05:42:01.585Z,16.34
2022-10-28T05:43:01.656Z,16.26
2022-10-28T05:44:01.617Z,16.24
2022-10-28T05:45:01.666Z,16.26
2022-10-28T05:46:01.668Z,16.25
2022-10-28T05:47:01.716Z,16.24
2022-10-28T05:48:01.812Z,16.21
2022-10-28T05:49:01.807Z,16.17
2022-10-28T05:50:01.807Z,16.21
2022-10-28T05:51:01.798Z,16.18
2022-10-28T05:52:01.881Z,16.21
2022-10-28T05:53:01.871Z,16.22
2022-10-28T05:54:01.862Z,16.24
2022-10-28T05:55:01.867Z,16.22
2022-10-28T05:56:01.847Z,16.25
2022-10-28T05:57:01.839Z,16.22
2022-10-28T05:58:01.820Z,16.21
2022-10-28T05:59:01.825Z,16.17
2022-10-28T06:00:01.833Z,16.12
2022-10-28T06:01:01.864Z,16.09
2022-10-28T06:02:01.912Z,16.03
2022-10-28T06:03:01.973Z,16.02
2022-10-28T06:04:02.117Z,16.00
2022-10-28T06:05:02.043Z,16.00
2022-10-28T06:06:02.119Z,16.02
2022-10-28T06:07:02.174Z,16.00
2022-10-28T06:08:02.199Z,15.98
2022-10-28T06:09:02.185Z,15.94
2022-10-28T06:10:02.192Z,15.92
2022-10-28T06:11:00.634Z,16.02
2022-10-28T06:12:00.657Z,16.06
2022-10-28T06:13:00.692Z,16.03
2022-10-28T06:14:00.730Z,16.03
2022-10-28T06:15:00.763Z,16.05
2022-10-28T06:16:00.768Z,16.09
2022-10-28T06:17:00.813Z,16.10
2022-10-28T06:18:00.758Z,16.12
2022-10-28T06:19:00.788Z,16.09
2022-10-28T06:20:00.799Z,16.09
2022-10-28T06:21:00.818Z,16.08
2022-10-28T06:22:00.787Z,16.10
2022-10-28T06:23:00.818Z,16.09
2022-10-28T06:24:00.827Z,16.10
2022-10-28T06:25:00.907Z,16.10
2022-10-28T06:26:00.965Z,16.08
2022-10-28T06:27:00.928Z,16.06
2022-10-28T06:28:00.969Z,16.06
2022-10-28T06:29:01.011Z,16.05
2022-10-28T06:30:01.029Z,16.09
2022-10-28T06:31:01.121Z,16.10
2022-10-28T06:32:01.143Z,16.10
2022-10-28T06:33:01.198Z,16.12
2022-10-28T06:34:01.228Z,16.13
2022-10-28T06:35:01.349Z,16.16
2022-10-28T06:36:01.249Z,16.13
2022-10-28T06:37:01.308Z,16.16
2022-10-28T06:38:03.750Z,16.13
2022-10-28T06:39:01.308Z,16.16
2022-10-28T06:40:01.284Z,16.22
2022-10-28T06:41:01.333Z,16.29
2022-10-28T06:42:01.346Z,16.31
2022-10-28T06:43:01.424Z,16.32
2022-10-28T06:44:01.412Z,16.40
2022-10-28T06:45:01.403Z,16.41
2022-10-28T06:46:01.474Z,16.43
2022-10-28T06:47:03.063Z,16.47
2022-10-28T06:48:03.109Z,16.50
2022-10-28T06:49:03.161Z,16.62
2022-10-28T06:50:03.136Z,16.73
2022-10-28T06:51:03.151Z,16.82
2022-10-28T06:52:03.162Z,16.99
2022-10-28T06:53:03.173Z,17.16
2022-10-28T06:54:03.214Z,17.32
2022-10-28T06:55:03.246Z,17.50
2022-10-28T06:56:03.266Z,17.65
2022-10-28T06:57:03.309Z,17.72
2022-10-28T06:58:03.332Z,17.88
2022-10-28T06:59:03.366Z,18.06
2022-10-28T07:00:03.391Z,18.19
2022-10-28T07:01:04.265Z,18.34
2022-10-28T07:02:03.612Z,18.34
2022-10-28T07:03:03.509Z,18.27
2022-10-28T07:04:03.461Z,18.34
2022-10-28T07:05:03.486Z,18.42
2022-10-28T07:06:03.544Z,18.34
2022-10-28T07:07:03.522Z,18.39
2022-10-28T07:08:03.547Z,18.33
2022-10-28T07:09:03.553Z,18.09
2022-10-28T07:10:03.563Z,18.00
2022-10-28T07:11:03.591Z,17.95
2022-10-28T07:12:05.129Z,17.86
2022-10-28T07:13:03.617Z,17.82
2022-10-28T07:14:03.656Z,17.84
2022-10-28T07:15:03.651Z,17.86
2022-10-28T07:16:03.668Z,17.84
2022-10-28T07:17:03.673Z,17.86
2022-10-28T07:18:03.692Z,17.87
2022-10-28T07:19:03.725Z,17.84
2022-10-28T07:20:03.727Z,17.86
2022-10-28T07:21:03.737Z,17.80
2022-10-28T07:22:03.749Z,17.78
2022-10-28T07:23:03.757Z,17.87
2022-10-28T07:24:03.771Z,17.95
2022-10-28T07:25:03.796Z,18.00
2022-10-28T07:26:03.804Z,18.02
2022-10-28T07:27:03.829Z,17.97
2022-10-28T07:28:03.821Z,17.93
2022-10-28T07:29:03.901Z,17.86
2022-10-28T07:30:03.882Z,17.80
2022-10-28T07:31:04.003Z,17.80
2022-10-28T07:32:03.986Z,17.86
2022-10-28T07:33:03.999Z,17.91
2022-10-28T07:34:04.035Z,17.97
2022-10-28T07:35:04.055Z,18.08
2022-10-28T07:36:04.062Z,18.16
2022-10-28T07:37:04.075Z,18.28
2022-10-28T07:38:04.092Z,18.23
2022-10-28T07:39:04.117Z,18.06
2022-10-28T07:40:04.114Z,18.02
2022-10-28T07:41:04.125Z,18.02
2022-10-28T07:42:04.142Z,18.09
2022-10-28T07:43:04.146Z,18.19
2022-10-28T07:44:04.169Z,18.28
2022-10-28T07:45:04.184Z,18.13
2022-10-28T07:46:04.194Z,18.12
2022-10-28T07:47:04.226Z,18.34
2022-10-28T07:48:04.238Z,18.67
2022-10-28T07:49:04.236Z,19.15
2022-10-28T07:50:04.269Z,19.74
2022-10-28T07:51:04.327Z,20.27
2022-10-28T07:52:04.387Z,20.89
2022-10-28T07:53:04.486Z,21.23
2022-10-28T07:54:04.458Z,21.53
2022-10-28T07:55:04.538Z,21.78
2022-10-28T07:56:04.545Z,21.92
2022-10-28T07:57:04.575Z,22.03
2022-10-28T07:58:04.627Z,22.36
2022-10-28T07:59:04.674Z,22.70
2022-10-28T08:00:04.661Z,22.78
2022-10-28T08:01:04.815Z,22.80
2022-10-28T08:02:04.777Z,23.08
2022-10-28T08:03:04.755Z,22.89
2022-10-28T08:04:04.801Z,22.56
2022-10-28T08:05:04.870Z,22.86
2022-10-28T08:06:04.879Z,23.20
2022-10-28T08:07:04.885Z,23.48
2022-10-28T08:08:04.932Z,23.28
2022-10-28T08:09:04.960Z,22.93
2022-10-28T08:10:04.989Z,22.78
2022-10-28T08:11:05.050Z,22.65
2022-10-28T08:12:05.097Z,22.51
2022-10-28T08:13:05.181Z,22.28
2022-10-28T08:14:05.223Z,22.62
2022-10-28T08:15:05.243Z,22.81
2022-10-28T08:16:05.315Z,23.17
2022-10-28T08:17:05.272Z,23.21
2022-10-28T08:18:05.313Z,23.40
2022-10-28T08:19:07.886Z,23.17
2022-10-28T08:20:05.388Z,23.54
2022-10-28T08:21:05.459Z,23.49
2022-10-28T08:22:05.530Z,23.49
2022-10-28T08:23:07.396Z,23.69
2022-10-28T08:24:05.559Z,24.04
2022-10-28T08:25:05.807Z,24.07
2022-10-28T08:26:05.619Z,24.19
2022-10-28T08:27:05.672Z,24.31
2022-10-28T08:28:05.800Z,24.43
2022-10-28T08:29:05.782Z,24.44
2022-10-28T08:30:05.832Z,24.22
2022-10-28T08:31:09.561Z,24.09
2022-10-28T08:32:05.881Z,23.63
2022-10-28T08:33:05.931Z,23.11
2022-10-28T08:34:06.005Z,22.62
2022-10-28T08:35:06.024Z,22.18
2022-10-28T08:36:06.054Z,21.89
2022-10-28T08:37:06.140Z,21.43
2022-10-28T08:38:06.137Z,21.25
2022-10-28T08:39:06.174Z,21.17
2022-10-28T08:40:06.186Z,21.05
2022-10-28T08:41:06.215Z,21.03
2022-10-28T08:42:06.247Z,20.92
2022-10-28T08:43:06.288Z,20.90
2022-10-28T08:44:06.319Z,21.00
2022-10-28T08:45:06.375Z,21.05
2022-10-28T08:46:06.403Z,21.15
2022-10-28T08:47:06.432Z,21.26
2022-10-28T08:48:06.464Z,21.29
2022-10-28T08:49:06.480Z,21.54
2022-10-28T08:50:06.469Z,21.88
2022-10-28T08:51:06.525Z,22.47
2022-10-28T08:52:06.595Z,23.16
2022-10-28T08:53:06.701Z,23.81
2022-10-28T08:54:06.810Z,24.36
2022-10-28T08:55:06.707Z,24.77
2022-10-28T08:56:06.758Z,24.89
2022-10-28T08:57:06.838Z,24.62
2022-10-28T08:58:06.828Z,24.61
2022-10-28T08:59:06.910Z,24.74
2022-10-28T09:00:06.881Z,24.84
2022-10-28T09:01:06.965Z,24.74
2022-10-28T09:02:06.930Z,24.71
2022-10-28T09:03:06.981Z,24.65
2022-10-28T09:04:07.043Z,24.94
2022-10-28T09:05:07.091Z,25.06
2022-10-28T09:06:07.162Z,24.92
2022-10-28T09:07:07.211Z,24.69
2022-10-28T09:08:07.298Z,24.55
2022-10-28T09:09:07.337Z,24.19
2022-10-28T09:10:07.356Z,23.63
2022-10-28T09:11:07.388Z,23.37
2022-10-28T09:12:07.410Z,23.32
2022-10-28T09:13:07.430Z,23.18
2022-10-28T09:14:07.459Z,23.01
2022-10-28T09:15:07.508Z,22.71
2022-10-28T09:16:09.311Z,22.86
2022-10-28T09:17:07.541Z,23.17
2022-10-28T09:18:07.605Z,23.63
2022-10-28T09:19:07.693Z,23.99
2022-10-28T09:20:07.681Z,24.34
2022-10-28T09:21:07.731Z,24.75
2022-10-28T09:22:07.780Z,25.09
2022-10-28T09:23:07.826Z,25.16
2022-10-28T09:24:07.917Z,25.26
2022-10-28T09:25:07.905Z,25.51
2022-10-28T09:26:07.876Z,25.67
2022-10-28T09:27:07.950Z,25.76
2022-10-28T09:28:08.009Z,25.83
2022-10-28T09:30:08.118Z,25.70
2022-10-28T09:31:08.095Z,25.63
2022-10-28T09:32:08.089Z,24.93
2022-10-28T09:33:08.118Z,24.34
2022-10-28T09:34:08.147Z,23.86
2022-10-28T09:35:08.159Z,23.63
2022-10-28T09:36:08.200Z,23.64
2022-10-28T09:37:08.220Z,23.81
2022-10-28T09:38:08.259Z,24.29
2022-10-28T09:39:08.324Z,24.69
2022-10-28T09:40:08.388Z,25.15
2022-10-28T09:41:08.465Z,25.36
2022-10-28T09:42:08.536Z,25.04
2022-10-28T09:43:08.513Z,25.51
2022-10-28T09:44:08.586Z,25.54
2022-10-28T09:45:08.635Z,25.25
2022-10-28T09:46:08.686Z,25.14
2022-10-28T09:47:08.735Z,25.24
2022-10-28T09:48:08.786Z,25.15
2022-10-28T09:49:08.839Z,24.96
2022-10-28T09:50:08.859Z,24.74
2022-10-28T09:51:08.887Z,24.48
2022-10-28T09:52:08.927Z,24.44
2022-10-28T09:53:08.949Z,24.16
2022-10-28T09:54:08.980Z,23.99
2022-10-28T09:55:09.002Z,23.86
2022-10-28T09:57:10.597Z,23.92
2022-10-28T09:58:09.059Z,23.89
2022-10-28T09:59:09.083Z,23.99
2022-10-28T10:00:09.093Z,23.95
2022-10-28T10:01:09.175Z,23.92
2022-10-28T10:02:09.179Z,24.00
2022-10-28T10:03:09.112Z,24.09
2022-10-28T10:04:09.172Z,24.14
2022-10-28T10:05:12.158Z,24.26
2022-10-28T10:06:09.211Z,24.34
2022-10-28T10:07:09.174Z,24.47
2022-10-28T10:08:09.205Z,24.41
2022-10-28T10:09:09.249Z,24.28
2022-10-28T10:10:09.286Z,24.18
2022-10-28T10:11:09.288Z,24.06
2022-10-28T10:12:09.270Z,24.09
2022-10-28T10:13:09.301Z,24.36
2022-10-28T10:14:09.317Z,24.79
2022-10-28T10:15:09.339Z,25.09
2022-10-28T10:16:09.369Z,25.18
2022-10-28T10:17:09.388Z,25.18
2022-10-28T10:18:09.391Z,24.96
2022-10-28T10:19:09.403Z,24.94
2022-10-28T10:20:09.402Z,25.40
2022-10-28T10:21:09.432Z,26.08
2022-10-28T10:22:09.466Z,26.52
2022-10-28T10:23:09.555Z,26.60
2022-10-28T10:24:09.518Z,26.41
2022-10-28T10:25:09.523Z,26.85
2022-10-28T10:26:12.126Z,27.35
2022-10-28T10:27:09.593Z,27.94
2022-10-28T10:28:09.604Z,28.50
2022-10-28T10:29:09.595Z,28.84
2022-10-28T10:30:09.625Z,28.62
2022-10-28T10:31:09.666Z,28.52
2022-10-28T10:32:09.668Z,28.60
2022-10-28T10:33:09.667Z,28.46
2022-10-28T10:34:09.707Z,28.25
2022-10-28T10:35:09.747Z,28.10
2022-10-28T10:36:09.771Z,27.97
2022-10-28T10:37:09.821Z,27.90
2022-10-28T10:38:09.840Z,28.08
2022-10-28T10:39:09.910Z,28.43
2022-10-28T10:40:09.921Z,28.70
2022-10-28T10:41:09.952Z,28.83
2022-10-28T10:42:09.953Z,28.62
2022-10-28T10:43:13.727Z,28.68
2022-10-28T10:44:09.988Z,28.57
2022-10-28T10:45:10.027Z,28.45
2022-10-28T10:46:10.044Z,28.84
2022-10-28T10:47:10.091Z,28.94
2022-10-28T10:48:10.146Z,28.52
2022-10-28T10:49:10.186Z,28.28
2022-10-28T10:50:10.187Z,28.41
2022-10-28T10:51:10.258Z,28.45
2022-10-28T10:52:10.267Z,28.74
2022-10-28T10:53:10.299Z,29.13
2022-10-28T10:54:10.289Z,29.55
2022-10-28T10:55:10.290Z,29.86
2022-10-28T10:56:10.310Z,29.77
2022-10-28T10:57:10.340Z,29.76
2022-10-28T10:58:10.371Z,29.64
2022-10-28T10:59:10.391Z,29.13
2022-10-28T11:00:10.382Z,28.59
2022-10-28T11:01:10.456Z,28.08
2022-10-28T11:02:10.582Z,27.72
2022-10-28T11:03:10.402Z,27.61
2022-10-28T11:04:10.454Z,27.19
2022-10-28T11:05:10.456Z,26.97
2022-10-28T11:06:25.913Z,26.91
2022-10-28T11:07:10.595Z,26.68
2022-10-28T11:08:11.554Z,26.93
2022-10-28T11:09:10.702Z,27.43
2022-10-28T11:10:10.719Z,27.48
2022-10-28T11:11:10.725Z,27.81
2022-10-28T11:12:10.719Z,27.90
2022-10-28T11:13:10.789Z,27.43
2022-10-28T11:14:10.819Z,26.98
2022-10-28T11:15:10.800Z,26.71
2022-10-28T11:16:10.880Z,26.81
2022-10-28T11:17:10.870Z,26.97
2022-10-28T11:18:10.860Z,26.97
2022-10-28T11:19:10.932Z,26.61
2022-10-28T11:20:10.931Z,26.06
2022-10-28T11:21:10.954Z,25.85
2022-10-28T11:22:10.955Z,25.77
2022-10-28T11:23:10.976Z,25.66
2022-10-28T11:24:11.004Z,25.88
2022-10-28T11:25:10.994Z,25.99
2022-10-28T11:26:10.984Z,26.08
2022-10-28T11:27:11.065Z,26.23
2022-10-28T11:28:11.044Z,26.11
2022-10-28T11:29:11.027Z,26.24
2022-10-28T11:30:11.096Z,26.18
2022-10-28T11:31:11.088Z,25.99
2022-10-28T11:32:11.109Z,25.83
2022-10-28T11:33:30.935Z,25.81
2022-10-28T11:34:11.110Z,26.06
2022-10-28T11:35:11.130Z,25.91
2022-10-28T11:36:11.120Z,26.06
2022-10-28T11:37:11.189Z,26.23
2022-10-28T11:38:11.253Z,26.30
2022-10-28T11:39:11.253Z,26.44
2022-10-28T11:40:11.271Z,26.53
2022-10-28T11:41:11.273Z,26.46
2022-10-28T11:42:11.335Z,26.37
2022-10-28T11:43:11.335Z,26.33
2022-10-28T11:44:11.333Z,26.15
2022-10-28T11:45:11.334Z,26.06
2022-10-28T11:46:11.317Z,25.99
2022-10-28T11:47:11.349Z,26.04
2022-10-28T11:48:11.407Z,26.01
2022-10-28T11:49:11.419Z,25.98
2022-10-28T11:50:11.387Z,25.91
2022-10-28T11:51:11.428Z,25.80
2022-10-28T11:52:11.508Z,25.70
2022-10-28T11:53:11.555Z,25.74
2022-10-28T11:54:11.553Z,26.01
2022-10-28T11:55:11.559Z,26.23
2022-10-28T11:56:11.559Z,26.42
2022-10-28T11:57:11.590Z,26.45
2022-10-28T11:58:11.611Z,26.51
2022-10-28T11:59:11.596Z,26.48
2022-10-28T12:00:11.640Z,26.51
2022-10-28T12:01:11.746Z,26.45
2022-10-28T12:02:11.880Z,26.48
2022-10-28T12:03:11.876Z,26.71
2022-10-28T12:04:11.822Z,26.55
2022-10-28T12:05:11.811Z,26.55
2022-10-28T12:06:11.807Z,26.97
2022-10-28T12:07:11.799Z,27.16
2022-10-28T12:08:11.815Z,27.33
2022-10-28T12:09:11.853Z,27.26
2022-10-28T12:10:11.846Z,27.37
2022-10-28T12:11:11.847Z,27.55
2022-10-28T12:12:11.849Z,27.60
2022-10-28T12:13:11.848Z,27.55
2022-10-28T12:14:11.910Z,27.30
2022-10-28T12:15:11.920Z,27.10
2022-10-28T12:16:11.930Z,26.88
2022-10-28T12:17:11.931Z,26.98
2022-10-28T12:18:11.940Z,26.93
2022-10-28T12:19:11.983Z,26.86
2022-10-28T12:20:12.012Z,26.78
2022-10-28T12:21:12.204Z,27.03
2022-10-28T12:22:12.094Z,27.03
2022-10-28T12:23:12.124Z,26.71
2022-10-28T12:24:12.184Z,26.73
2022-10-28T12:25:12.255Z,26.68
2022-10-28T12:26:12.185Z,26.63
2022-10-28T12:27:15.414Z,26.60
2022-10-28T12:28:12.355Z,26.68
2022-10-28T12:29:12.296Z,26.73
2022-10-28T12:30:12.329Z,26.73
2022-10-28T12:31:12.277Z,26.66
2022-10-28T12:32:12.286Z,26.49
2022-10-28T12:33:12.355Z,26.39
2022-10-28T12:34:12.424Z,26.42
2022-10-28T12:35:12.489Z,26.36
2022-10-28T12:36:12.479Z,26.44
2022-10-28T12:37:12.506Z,26.46
2022-10-28T12:38:12.542Z,26.29
2022-10-28T12:39:12.566Z,26.11
2022-10-28T12:40:12.552Z,26.26
2022-10-28T12:41:12.613Z,26.29
2022-10-28T12:42:12.635Z,26.22
2022-10-28T12:43:12.660Z,26.24
2022-10-28T12:44:12.614Z,26.36
2022-10-28T12:45:12.646Z,26.19
2022-10-28T12:46:12.674Z,26.08
2022-10-28T12:47:12.635Z,25.81
2022-10-28T12:48:12.715Z,25.74
2022-10-28T12:49:12.685Z,25.74
2022-10-28T12:50:12.695Z,25.74
2022-10-28T12:51:12.694Z,25.76
2022-10-28T12:52:12.706Z,25.66
2022-10-28T12:53:12.725Z,25.63
2022-10-28T12:54:12.737Z,25.62
2022-10-28T12:55:12.726Z,25.62